Terminal Aerodrome Forecast
Issued by NWS Shreveport, LA

Home | Current Version | Previous Version | Text Only | Print | Product List | Glossary On
Versions: 1 2 3 4 5 6 7 8 9 10 11 12 13 14
000
FTUS44 KSHV 301752
TAFELD
TAF
KELD 301752Z 3018/3118 03008KT P6SM SCT060 SCT090
     FM310300 05006KT P6SM SCT060
     FM310600 VRB03KT P6SM BKN250
     FM311400 05009KT P6SM SKC=

USA.gov is the U.S. government's official web portal to all federal, state and local government web resources and services.